イカルイト の空港の天気 - METARとTAF

イカルイト空港 ( CYFB / YFB ) - カナダ ヌナブト準州イカルイト
飛行場実況気象(Metar)
観測時間01/22 23:00 EST (01/23 04:00 UTC)
風向・風速北西 10m/s
視程6450m
天気現象高い地吹雪
全天の8割程度の雲 雲底高度 180m
気温-26℃
湿度76%
気圧1016.5hPa
METARCYFB 230400Z 32020KT 4SM BLSN BKN006 M26/M29 A3000 RMK BLSN2SF3 SLP165
過去の天気等 Google飛行場航空写真 Wunderground天気予報

過去48時間のMETAR

飛行場予報(TAF)
発表時間: 1/22 22:14 EST (1/23 03:14 UTC)
予報対象時間: 22日22時 EST ~ 23日19時 EST
風向・風速北西 10m/s 瞬間風速 15m/s
視程10km以上
天気現象高い地吹雪
少しの雲 雲底高度 210m
全天の4割程度の雲 雲底高度 910m
22日22時 EST ~ 23日19時 EST に一時的に
視程3,220m
天気現象細氷 高い地吹雪
全天の4割程度の雲 雲底高度 210m
全天の8割程度の雲 雲底高度 910m
TAF AMD CYFB 230314Z 2303/2324 32020G30KT 6SM BLSN FEW007 SCT030
TEMPO 2303/2324 2SM IC BLSN SCT007 BKN030 RMK NXT FCST BY 230600Z